sensor_id;sensor_type;location;lat;lon;timestamp;P1;durP1;ratioP1;P2;durP2;ratioP2
24261;SDS011;12385;51.412;5.540;2023-06-10T00:02:06;8.68;;;5.40;;
24261;SDS011;12385;51.412;5.540;2023-06-10T00:04:32;7.38;;;5.50;;
24261;SDS011;12385;51.412;5.540;2023-06-10T00:06:59;8.43;;;5.28;;
24261;SDS011;12385;51.412;5.540;2023-06-10T00:09:24;9.55;;;5.45;;
24261;SDS011;12385;51.412;5.540;2023-06-10T00:11:50;8.60;;;5.22;;
24261;SDS011;12385;51.412;5.540;2023-06-10T00:14:16;9.63;;;5.50;;
24261;SDS011;12385;51.412;5.540;2023-06-10T00:16:42;8.93;;;5.07;;
24261;SDS011;12385;51.412;5.540;2023-06-10T00:19:12;8.13;;;5.50;;
24261;SDS011;12385;51.412;5.540;2023-06-10T00:21:40;8.48;;;5.60;;
24261;SDS011;12385;51.412;5.540;2023-06-10T00:24:09;13.18;;;5.47;;
24261;SDS011;12385;51.412;5.540;2023-06-10T00:26:37;8.52;;;5.30;;
24261;SDS011;12385;51.412;5.540;2023-06-10T00:29:03;9.32;;;5.40;;
24261;SDS011;12385;51.412;5.540;2023-06-10T00:31:29;12.02;;;5.60;;
24261;SDS011;12385;51.412;5.540;2023-06-10T00:33:56;12.77;;;5.30;;
24261;SDS011;12385;51.412;5.540;2023-06-10T00:36:23;10.65;;;5.28;;
24261;SDS011;12385;51.412;5.540;2023-06-10T00:38:49;9.73;;;5.80;;
24261;SDS011;12385;51.412;5.540;2023-06-10T00:41:15;8.32;;;5.32;;
24261;SDS011;12385;51.412;5.540;2023-06-10T00:43:40;9.65;;;5.43;;
24261;SDS011;12385;51.412;5.540;2023-06-10T00:46:06;8.93;;;5.55;;
24261;SDS011;12385;51.412;5.540;2023-06-10T00:48:32;11.55;;;5.80;;
24261;SDS011;12385;51.412;5.540;2023-06-10T00:50:58;9.32;;;5.57;;
24261;SDS011;12385;51.412;5.540;2023-06-10T00:53:24;10.85;;;6.00;;
24261;SDS011;12385;51.412;5.540;2023-06-10T00:55:51;11.68;;;6.03;;
24261;SDS011;12385;51.412;5.540;2023-06-10T00:58:17;11.27;;;6.28;;
24261;SDS011;12385;51.412;5.540;2023-06-10T01:00:43;9.65;;;5.60;;
24261;SDS011;12385;51.412;5.540;2023-06-10T01:03:10;10.73;;;6.22;;
24261;SDS011;12385;51.412;5.540;2023-06-10T01:05:37;9.63;;;5.72;;
24261;SDS011;12385;51.412;5.540;2023-06-10T01:08:07;11.20;;;6.00;;
24261;SDS011;12385;51.412;5.540;2023-06-10T01:13:24;7.93;;;5.88;;
24261;SDS011;12385;51.412;5.540;2023-06-10T01:15:54;10.18;;;6.35;;
24261;SDS011;12385;51.412;5.540;2023-06-10T01:18:21;13.52;;;6.00;;
24261;SDS011;12385;51.412;5.540;2023-06-10T01:20:47;8.68;;;6.03;;
24261;SDS011;12385;51.412;5.540;2023-06-10T01:23:14;9.27;;;5.82;;
24261;SDS011;12385;51.412;5.540;2023-06-10T01:25:53;14.65;;;6.45;;
24261;SDS011;12385;51.412;5.540;2023-06-10T01:29:07;12.07;;;5.97;;
24261;SDS011;12385;51.412;5.540;2023-06-10T01:31:38;10.95;;;6.25;;
24261;SDS011;12385;51.412;5.540;2023-06-10T01:34:14;8.45;;;6.18;;
24261;SDS011;12385;51.412;5.540;2023-06-10T01:36:43;10.95;;;6.57;;
24261;SDS011;12385;51.412;5.540;2023-06-10T01:39:12;12.35;;;7.00;;
24261;SDS011;12385;51.412;5.540;2023-06-10T01:41:41;10.63;;;6.40;;
24261;SDS011;12385;51.412;5.540;2023-06-10T01:44:07;9.00;;;6.70;;
24261;SDS011;12385;51.412;5.540;2023-06-10T01:46:33;11.07;;;6.38;;
24261;SDS011;12385;51.412;5.540;2023-06-10T01:48:59;10.95;;;6.70;;
24261;SDS011;12385;51.412;5.540;2023-06-10T01:51:24;9.20;;;6.75;;
24261;SDS011;12385;51.412;5.540;2023-06-10T01:53:50;11.68;;;6.63;;
24261;SDS011;12385;51.412;5.540;2023-06-10T01:56:16;10.15;;;6.75;;
24261;SDS011;12385;51.412;5.540;2023-06-10T01:58:50;13.90;;;6.90;;
24261;SDS011;12385;51.412;5.540;2023-06-10T02:01:16;10.05;;;6.78;;
24261;SDS011;12385;51.412;5.540;2023-06-10T02:03:42;11.75;;;6.90;;
24261;SDS011;12385;51.412;5.540;2023-06-10T02:06:07;11.25;;;6.80;;
24261;SDS011;12385;51.412;5.540;2023-06-10T02:08:33;12.10;;;7.05;;
24261;SDS011;12385;51.412;5.540;2023-06-10T02:10:58;9.45;;;6.82;;
24261;SDS011;12385;51.412;5.540;2023-06-10T02:13:26;8.45;;;6.60;;
24261;SDS011;12385;51.412;5.540;2023-06-10T02:15:51;10.93;;;6.57;;
24261;SDS011;12385;51.412;5.540;2023-06-10T02:18:19;10.43;;;7.05;;
24261;SDS011;12385;51.412;5.540;2023-06-10T02:20:45;11.95;;;7.25;;
24261;SDS011;12385;51.412;5.540;2023-06-10T02:23:11;10.85;;;7.05;;
24261;SDS011;12385;51.412;5.540;2023-06-10T02:25:37;11.63;;;6.85;;
24261;SDS011;12385;51.412;5.540;2023-06-10T02:28:03;11.65;;;7.28;;
24261;SDS011;12385;51.412;5.540;2023-06-10T02:30:29;12.93;;;7.38;;
24261;SDS011;12385;51.412;5.540;2023-06-10T02:32:54;8.93;;;7.13;;
24261;SDS011;12385;51.412;5.540;2023-06-10T02:35:21;12.95;;;7.63;;
24261;SDS011;12385;51.412;5.540;2023-06-10T02:37:49;13.02;;;7.03;;
24261;SDS011;12385;51.412;5.540;2023-06-10T02:40:15;11.73;;;7.00;;
24261;SDS011;12385;51.412;5.540;2023-06-10T02:42:41;11.20;;;7.07;;
24261;SDS011;12385;51.412;5.540;2023-06-10T02:45:06;11.65;;;7.30;;
24261;SDS011;12385;51.412;5.540;2023-06-10T02:47:32;11.32;;;7.65;;
24261;SDS011;12385;51.412;5.540;2023-06-10T02:52:28;13.45;;;7.43;;
24261;SDS011;12385;51.412;5.540;2023-06-10T02:54:55;11.15;;;7.53;;
24261;SDS011;12385;51.412;5.540;2023-06-10T02:57:20;10.93;;;7.10;;
24261;SDS011;12385;51.412;5.540;2023-06-10T02:59:46;13.85;;;7.47;;
24261;SDS011;12385;51.412;5.540;2023-06-10T03:02:13;10.05;;;7.35;;
24261;SDS011;12385;51.412;5.540;2023-06-10T03:04:43;12.18;;;7.93;;
24261;SDS011;12385;51.412;5.540;2023-06-10T03:07:10;11.23;;;7.40;;
24261;SDS011;12385;51.412;5.540;2023-06-10T03:09:36;9.18;;;7.63;;
24261;SDS011;12385;51.412;5.540;2023-06-10T03:12:02;12.20;;;7.35;;
24261;SDS011;12385;51.412;5.540;2023-06-10T03:14:27;10.85;;;7.90;;
24261;SDS011;12385;51.412;5.540;2023-06-10T03:16:53;11.68;;;7.95;;
24261;SDS011;12385;51.412;5.540;2023-06-10T03:19:20;12.88;;;7.78;;
24261;SDS011;12385;51.412;5.540;2023-06-10T03:22:07;13.65;;;7.82;;
24261;SDS011;12385;51.412;5.540;2023-06-10T03:24:34;10.55;;;7.65;;
24261;SDS011;12385;51.412;5.540;2023-06-10T03:27:01;13.00;;;7.47;;
24261;SDS011;12385;51.412;5.540;2023-06-10T03:29:31;10.70;;;8.05;;
24261;SDS011;12385;51.412;5.540;2023-06-10T03:31:57;9.00;;;7.60;;
24261;SDS011;12385;51.412;5.540;2023-06-10T03:34:23;12.10;;;8.20;;
24261;SDS011;12385;51.412;5.540;2023-06-10T03:39:19;12.38;;;8.45;;
24261;SDS011;12385;51.412;5.540;2023-06-10T03:41:45;13.13;;;8.90;;
24261;SDS011;12385;51.412;5.540;2023-06-10T03:44:11;13.68;;;8.30;;
24261;SDS011;12385;51.412;5.540;2023-06-10T03:46:37;13.77;;;8.13;;
24261;SDS011;12385;51.412;5.540;2023-06-10T03:49:03;12.95;;;9.50;;
24261;SDS011;12385;51.412;5.540;2023-06-10T03:51:29;11.88;;;8.57;;
24261;SDS011;12385;51.412;5.540;2023-06-10T03:53:55;15.43;;;8.77;;
24261;SDS011;12385;51.412;5.540;2023-06-10T03:56:20;13.70;;;8.82;;
24261;SDS011;12385;51.412;5.540;2023-06-10T03:58:46;14.77;;;9.13;;
24261;SDS011;12385;51.412;5.540;2023-06-10T04:01:12;13.27;;;8.98;;
24261;SDS011;12385;51.412;5.540;2023-06-10T04:03:42;13.57;;;9.18;;
24261;SDS011;12385;51.412;5.540;2023-06-10T04:06:08;15.80;;;8.93;;
24261;SDS011;12385;51.412;5.540;2023-06-10T04:08:34;14.68;;;9.15;;
24261;SDS011;12385;51.412;5.540;2023-06-10T04:11:01;14.70;;;9.45;;
24261;SDS011;12385;51.412;5.540;2023-06-10T04:13:27;14.45;;;9.10;;
24261;SDS011;12385;51.412;5.540;2023-06-10T04:15:53;13.48;;;9.40;;
24261;SDS011;12385;51.412;5.540;2023-06-10T04:18:19;14.20;;;10.32;;
24261;SDS011;12385;51.412;5.540;2023-06-10T04:20:45;15.32;;;9.93;;
24261;SDS011;12385;51.412;5.540;2023-06-10T04:23:11;14.32;;;10.27;;
24261;SDS011;12385;51.412;5.540;2023-06-10T04:25:36;15.80;;;10.20;;
24261;SDS011;12385;51.412;5.540;2023-06-10T04:28:02;16.33;;;9.57;;
24261;SDS011;12385;51.412;5.540;2023-06-10T04:30:28;19.27;;;10.38;;
24261;SDS011;12385;51.412;5.540;2023-06-10T04:32:53;14.15;;;10.43;;
24261;SDS011;12385;51.412;5.540;2023-06-10T04:35:19;13.23;;;9.65;;
24261;SDS011;12385;51.412;5.540;2023-06-10T04:37:47;12.15;;;10.07;;
24261;SDS011;12385;51.412;5.540;2023-06-10T04:40:12;15.38;;;10.48;;
24261;SDS011;12385;51.412;5.540;2023-06-10T04:42:38;14.32;;;10.13;;
24261;SDS011;12385;51.412;5.540;2023-06-10T04:45:04;14.55;;;9.82;;
24261;SDS011;12385;51.412;5.540;2023-06-10T04:47:30;14.00;;;10.80;;
24261;SDS011;12385;51.412;5.540;2023-06-10T04:50:02;18.15;;;10.27;;
24261;SDS011;12385;51.412;5.540;2023-06-10T04:52:29;17.00;;;10.70;;
24261;SDS011;12385;51.412;5.540;2023-06-10T04:54:55;14.65;;;11.90;;
24261;SDS011;12385;51.412;5.540;2023-06-10T04:57:23;16.55;;;11.48;;
24261;SDS011;12385;51.412;5.540;2023-06-10T04:59:48;14.52;;;10.70;;
24261;SDS011;12385;51.412;5.540;2023-06-10T05:02:15;17.98;;;10.50;;
24261;SDS011;12385;51.412;5.540;2023-06-10T05:04:41;14.70;;;10.80;;
24261;SDS011;12385;51.412;5.540;2023-06-10T05:07:07;18.83;;;10.88;;
24261;SDS011;12385;51.412;5.540;2023-06-10T05:09:32;17.02;;;11.40;;
24261;SDS011;12385;51.412;5.540;2023-06-10T05:11:58;14.57;;;11.43;;
24261;SDS011;12385;51.412;5.540;2023-06-10T05:14:24;14.55;;;11.45;;
24261;SDS011;12385;51.412;5.540;2023-06-10T05:16:49;15.73;;;11.32;;
24261;SDS011;12385;51.412;5.540;2023-06-10T05:19:15;16.20;;;12.07;;
24261;SDS011;12385;51.412;5.540;2023-06-10T05:21:44;14.18;;;11.27;;
24261;SDS011;12385;51.412;5.540;2023-06-10T05:24:11;14.48;;;11.25;;
24261;SDS011;12385;51.412;5.540;2023-06-10T05:26:37;16.08;;;11.68;;
24261;SDS011;12385;51.412;5.540;2023-06-10T05:29:03;16.08;;;11.90;;
24261;SDS011;12385;51.412;5.540;2023-06-10T05:31:30;15.75;;;11.65;;
24261;SDS011;12385;51.412;5.540;2023-06-10T05:33:56;16.00;;;11.40;;
24261;SDS011;12385;51.412;5.540;2023-06-10T05:36:21;21.08;;;11.77;;
24261;SDS011;12385;51.412;5.540;2023-06-10T05:38:50;17.63;;;11.50;;
24261;SDS011;12385;51.412;5.540;2023-06-10T05:41:15;16.23;;;11.50;;
24261;SDS011;12385;51.412;5.540;2023-06-10T05:43:41;15.93;;;10.73;;
24261;SDS011;12385;51.412;5.540;2023-06-10T05:46:07;14.20;;;10.88;;
24261;SDS011;12385;51.412;5.540;2023-06-10T05:48:32;20.23;;;11.30;;
24261;SDS011;12385;51.412;5.540;2023-06-10T05:50:58;13.93;;;11.05;;
24261;SDS011;12385;51.412;5.540;2023-06-10T05:53:25;13.82;;;11.18;;
24261;SDS011;12385;51.412;5.540;2023-06-10T05:55:50;17.55;;;11.30;;
24261;SDS011;12385;51.412;5.540;2023-06-10T05:58:18;16.58;;;11.30;;
24261;SDS011;12385;51.412;5.540;2023-06-10T06:00:44;15.68;;;10.63;;
24261;SDS011;12385;51.412;5.540;2023-06-10T06:03:10;15.82;;;11.35;;
24261;SDS011;12385;51.412;5.540;2023-06-10T06:05:36;17.80;;;11.18;;
24261;SDS011;12385;51.412;5.540;2023-06-10T06:08:06;16.77;;;10.95;;
24261;SDS011;12385;51.412;5.540;2023-06-10T06:10:32;18.30;;;11.07;;
24261;SDS011;12385;51.412;5.540;2023-06-10T06:12:59;18.73;;;11.23;;
24261;SDS011;12385;51.412;5.540;2023-06-10T06:15:25;15.50;;;10.70;;
24261;SDS011;12385;51.412;5.540;2023-06-10T06:17:51;18.48;;;11.15;;
24261;SDS011;12385;51.412;5.540;2023-06-10T06:20:21;20.40;;;11.05;;
24261;SDS011;12385;51.412;5.540;2023-06-10T06:22:50;16.40;;;10.52;;
24261;SDS011;12385;51.412;5.540;2023-06-10T06:25:16;14.65;;;10.82;;
24261;SDS011;12385;51.412;5.540;2023-06-10T06:27:41;17.63;;;10.82;;
24261;SDS011;12385;51.412;5.540;2023-06-10T06:30:07;15.40;;;10.50;;
24261;SDS011;12385;51.412;5.540;2023-06-10T06:32:33;16.80;;;10.80;;
24261;SDS011;12385;51.412;5.540;2023-06-10T06:34:59;16.25;;;10.38;;
24261;SDS011;12385;51.412;5.540;2023-06-10T06:37:26;16.85;;;9.68;;
24261;SDS011;12385;51.412;5.540;2023-06-10T06:39:52;17.00;;;9.55;;
24261;SDS011;12385;51.412;5.540;2023-06-10T06:42:18;18.70;;;10.30;;
24261;SDS011;12385;51.412;5.540;2023-06-10T06:44:45;11.40;;;9.07;;
24261;SDS011;12385;51.412;5.540;2023-06-10T06:47:12;18.40;;;9.60;;
24261;SDS011;12385;51.412;5.540;2023-06-10T06:49:38;14.98;;;8.52;;
24261;SDS011;12385;51.412;5.540;2023-06-10T06:52:04;13.00;;;8.93;;
24261;SDS011;12385;51.412;5.540;2023-06-10T06:54:31;16.45;;;9.75;;
24261;SDS011;12385;51.412;5.540;2023-06-10T06:56:56;15.27;;;9.68;;
24261;SDS011;12385;51.412;5.540;2023-06-10T06:59:22;15.75;;;9.25;;
24261;SDS011;12385;51.412;5.540;2023-06-10T07:01:48;14.27;;;8.68;;
24261;SDS011;12385;51.412;5.540;2023-06-10T07:04:15;15.55;;;9.27;;
24261;SDS011;12385;51.412;5.540;2023-06-10T07:06:41;17.67;;;9.55;;
24261;SDS011;12385;51.412;5.540;2023-06-10T07:09:08;16.65;;;8.63;;
24261;SDS011;12385;51.412;5.540;2023-06-10T07:11:34;19.48;;;8.82;;
24261;SDS011;12385;51.412;5.540;2023-06-10T07:14:00;15.35;;;8.57;;
24261;SDS011;12385;51.412;5.540;2023-06-10T07:16:25;15.60;;;8.25;;
24261;SDS011;12385;51.412;5.540;2023-06-10T07:18:52;14.60;;;9.00;;
24261;SDS011;12385;51.412;5.540;2023-06-10T07:21:18;12.80;;;7.95;;
24261;SDS011;12385;51.412;5.540;2023-06-10T07:23:43;12.07;;;7.72;;
24261;SDS011;12385;51.412;5.540;2023-06-10T07:26:09;18.15;;;7.95;;
24261;SDS011;12385;51.412;5.540;2023-06-10T07:28:39;10.55;;;7.65;;
24261;SDS011;12385;51.412;5.540;2023-06-10T07:31:05;11.75;;;7.75;;
24261;SDS011;12385;51.412;5.540;2023-06-10T07:33:32;15.30;;;7.35;;
24261;SDS011;12385;51.412;5.540;2023-06-10T07:35:58;15.52;;;8.10;;
24261;SDS011;12385;51.412;5.540;2023-06-10T07:38:24;15.43;;;7.57;;
24261;SDS011;12385;51.412;5.540;2023-06-10T07:40:51;12.52;;;7.30;;
24261;SDS011;12385;51.412;5.540;2023-06-10T07:43:16;14.35;;;7.28;;
24261;SDS011;12385;51.412;5.540;2023-06-10T07:45:42;11.30;;;6.78;;
24261;SDS011;12385;51.412;5.540;2023-06-10T07:48:08;10.95;;;7.10;;
24261;SDS011;12385;51.412;5.540;2023-06-10T07:50:34;12.23;;;6.78;;
24261;SDS011;12385;51.412;5.540;2023-06-10T07:53:00;13.68;;;6.25;;
24261;SDS011;12385;51.412;5.540;2023-06-10T07:55:27;10.60;;;6.25;;
24261;SDS011;12385;51.412;5.540;2023-06-10T07:57:52;15.07;;;6.68;;
24261;SDS011;12385;51.412;5.540;2023-06-10T08:00:19;10.00;;;6.55;;
24261;SDS011;12385;51.412;5.540;2023-06-10T08:02:45;12.48;;;6.68;;
24261;SDS011;12385;51.412;5.540;2023-06-10T08:05:12;8.98;;;6.18;;
24261;SDS011;12385;51.412;5.540;2023-06-10T08:07:41;14.32;;;5.80;;
24261;SDS011;12385;51.412;5.540;2023-06-10T08:10:07;11.70;;;5.97;;
24261;SDS011;12385;51.412;5.540;2023-06-10T08:12:34;12.35;;;6.05;;
24261;SDS011;12385;51.412;5.540;2023-06-10T08:15:00;9.07;;;5.57;;
24261;SDS011;12385;51.412;5.540;2023-06-10T08:17:26;11.02;;;6.05;;
24261;SDS011;12385;51.412;5.540;2023-06-10T08:19:52;9.18;;;5.85;;
24261;SDS011;12385;51.412;5.540;2023-06-10T08:22:18;12.07;;;6.00;;
24261;SDS011;12385;51.412;5.540;2023-06-10T08:24:43;9.32;;;5.35;;
24261;SDS011;12385;51.412;5.540;2023-06-10T08:27:09;8.50;;;5.85;;
24261;SDS011;12385;51.412;5.540;2023-06-10T08:29:35;8.80;;;6.35;;
24261;SDS011;12385;51.412;5.540;2023-06-10T08:32:01;10.80;;;5.75;;
24261;SDS011;12385;51.412;5.540;2023-06-10T08:34:27;13.25;;;5.50;;
24261;SDS011;12385;51.412;5.540;2023-06-10T08:36:53;10.90;;;5.38;;
24261;SDS011;12385;51.412;5.540;2023-06-10T08:39:21;9.25;;;5.30;;
24261;SDS011;12385;51.412;5.540;2023-06-10T08:44:40;9.73;;;5.53;;
24261;SDS011;12385;51.412;5.540;2023-06-10T08:47:14;12.05;;;5.43;;
24261;SDS011;12385;51.412;5.540;2023-06-10T08:49:41;13.13;;;5.70;;
24261;SDS011;12385;51.412;5.540;2023-06-10T08:52:10;12.43;;;5.40;;
24261;SDS011;12385;51.412;5.540;2023-06-10T08:54:59;7.70;;;4.97;;
24261;SDS011;12385;51.412;5.540;2023-06-10T08:57:35;10.73;;;4.82;;
24261;SDS011;12385;51.412;5.540;2023-06-10T09:00:02;11.60;;;5.13;;
24261;SDS011;12385;51.412;5.540;2023-06-10T09:02:28;11.80;;;5.30;;
24261;SDS011;12385;51.412;5.540;2023-06-10T09:04:56;11.18;;;5.18;;
24261;SDS011;12385;51.412;5.540;2023-06-10T09:07:22;16.77;;;5.57;;
24261;SDS011;12385;51.412;5.540;2023-06-10T09:09:48;9.60;;;5.30;;
24261;SDS011;12385;51.412;5.540;2023-06-10T09:12:14;8.10;;;4.82;;
24261;SDS011;12385;51.412;5.540;2023-06-10T09:14:41;8.38;;;4.97;;
24261;SDS011;12385;51.412;5.540;2023-06-10T09:17:07;16.15;;;5.60;;
24261;SDS011;12385;51.412;5.540;2023-06-10T09:19:33;13.32;;;4.90;;
24261;SDS011;12385;51.412;5.540;2023-06-10T09:22:01;10.90;;;4.78;;
24261;SDS011;12385;51.412;5.540;2023-06-10T09:24:27;10.93;;;4.95;;
24261;SDS011;12385;51.412;5.540;2023-06-10T09:27:03;10.02;;;4.88;;
24261;SDS011;12385;51.412;5.540;2023-06-10T09:29:31;8.75;;;4.93;;
24261;SDS011;12385;51.412;5.540;2023-06-10T09:32:17;12.90;;;4.80;;
24261;SDS011;12385;51.412;5.540;2023-06-10T09:34:44;12.32;;;5.00;;
24261;SDS011;12385;51.412;5.540;2023-06-10T09:37:20;12.45;;;5.10;;
24261;SDS011;12385;51.412;5.540;2023-06-10T09:40:03;10.73;;;5.07;;
24261;SDS011;12385;51.412;5.540;2023-06-10T09:42:32;10.80;;;5.38;;
24261;SDS011;12385;51.412;5.540;2023-06-10T09:45:00;10.60;;;5.03;;
24261;SDS011;12385;51.412;5.540;2023-06-10T09:47:26;9.27;;;4.82;;
24261;SDS011;12385;51.412;5.540;2023-06-10T09:49:52;10.23;;;4.85;;
24261;SDS011;12385;51.412;5.540;2023-06-10T09:52:28;10.40;;;4.72;;
24261;SDS011;12385;51.412;5.540;2023-06-10T09:54:59;11.30;;;4.18;;
24261;SDS011;12385;51.412;5.540;2023-06-10T09:57:26;8.52;;;4.57;;
24261;SDS011;12385;51.412;5.540;2023-06-10T09:59:57;11.48;;;4.68;;
24261;SDS011;12385;51.412;5.540;2023-06-10T10:02:23;7.20;;;4.22;;
24261;SDS011;12385;51.412;5.540;2023-06-10T10:04:49;7.20;;;4.50;;
24261;SDS011;12385;51.412;5.540;2023-06-10T10:07:15;8.30;;;4.78;;
24261;SDS011;12385;51.412;5.540;2023-06-10T10:09:41;9.07;;;4.60;;
24261;SDS011;12385;51.412;5.540;2023-06-10T10:14:38;8.70;;;4.78;;
24261;SDS011;12385;51.412;5.540;2023-06-10T10:17:09;8.52;;;4.70;;
24261;SDS011;12385;51.412;5.540;2023-06-10T10:22:31;12.52;;;5.00;;
24261;SDS011;12385;51.412;5.540;2023-06-10T10:25:24;8.13;;;4.57;;
24261;SDS011;12385;51.412;5.540;2023-06-10T10:27:57;9.10;;;4.03;;
24261;SDS011;12385;51.412;5.540;2023-06-10T10:30:28;12.07;;;4.90;;
24261;SDS011;12385;51.412;5.540;2023-06-10T10:33:00;8.70;;;4.35;;
24261;SDS011;12385;51.412;5.540;2023-06-10T10:35:30;6.78;;;4.50;;
24261;SDS011;12385;51.412;5.540;2023-06-10T10:37:59;11.10;;;4.90;;
24261;SDS011;12385;51.412;5.540;2023-06-10T10:40:25;10.88;;;4.40;;
24261;SDS011;12385;51.412;5.540;2023-06-10T10:42:55;5.65;;;4.15;;
24261;SDS011;12385;51.412;5.540;2023-06-10T10:45:22;9.63;;;4.20;;
24261;SDS011;12385;51.412;5.540;2023-06-10T10:47:54;9.43;;;4.80;;
24261;SDS011;12385;51.412;5.540;2023-06-10T10:50:25;6.55;;;4.55;;
24261;SDS011;12385;51.412;5.540;2023-06-10T10:52:58;8.57;;;4.47;;
24261;SDS011;12385;51.412;5.540;2023-06-10T10:55:27;10.30;;;4.00;;
24261;SDS011;12385;51.412;5.540;2023-06-10T10:57:55;6.53;;;4.32;;
24261;SDS011;12385;51.412;5.540;2023-06-10T11:00:32;8.52;;;4.18;;
24261;SDS011;12385;51.412;5.540;2023-06-10T11:03:08;8.45;;;4.35;;
24261;SDS011;12385;51.412;5.540;2023-06-10T11:05:40;10.77;;;4.22;;
24261;SDS011;12385;51.412;5.540;2023-06-10T11:08:13;7.55;;;4.28;;
24261;SDS011;12385;51.412;5.540;2023-06-10T11:10:41;10.27;;;4.43;;
24261;SDS011;12385;51.412;5.540;2023-06-10T11:13:19;7.53;;;4.30;;
24261;SDS011;12385;51.412;5.540;2023-06-10T11:15:46;10.45;;;4.60;;
24261;SDS011;12385;51.412;5.540;2023-06-10T11:31:26;6.38;;;4.00;;
24261;SDS011;12385;51.412;5.540;2023-06-10T11:33:52;9.18;;;4.13;;
24261;SDS011;12385;51.412;5.540;2023-06-10T11:36:18;8.65;;;3.88;;
24261;SDS011;12385;51.412;5.540;2023-06-10T11:38:44;8.48;;;3.70;;
24261;SDS011;12385;51.412;5.540;2023-06-10T11:41:12;6.53;;;3.67;;
24261;SDS011;12385;51.412;5.540;2023-06-10T11:43:43;8.38;;;3.85;;
24261;SDS011;12385;51.412;5.540;2023-06-10T11:46:13;9.35;;;4.13;;
24261;SDS011;12385;51.412;5.540;2023-06-10T11:51:31;6.00;;;3.63;;
24261;SDS011;12385;51.412;5.540;2023-06-10T11:54:00;10.15;;;3.83;;
24261;SDS011;12385;51.412;5.540;2023-06-10T11:56:26;8.00;;;3.78;;
24261;SDS011;12385;51.412;5.540;2023-06-10T11:58:54;8.30;;;3.78;;
24261;SDS011;12385;51.412;5.540;2023-06-10T12:01:29;7.63;;;4.18;;
24261;SDS011;12385;51.412;5.540;2023-06-10T12:04:03;9.43;;;3.97;;
24261;SDS011;12385;51.412;5.540;2023-06-10T12:06:52;8.32;;;3.92;;
24261;SDS011;12385;51.412;5.540;2023-06-10T12:11:50;7.70;;;4.20;;
24261;SDS011;12385;51.412;5.540;2023-06-10T12:17:18;5.85;;;3.72;;
24261;SDS011;12385;51.412;5.540;2023-06-10T12:19:46;6.78;;;4.07;;
24261;SDS011;12385;51.412;5.540;2023-06-10T12:22:13;7.50;;;4.28;;
24261;SDS011;12385;51.412;5.540;2023-06-10T12:24:45;6.07;;;4.10;;
24261;SDS011;12385;51.412;5.540;2023-06-10T12:27:28;7.15;;;3.92;;
24261;SDS011;12385;51.412;5.540;2023-06-10T12:29:55;9.18;;;3.90;;
24261;SDS011;12385;51.412;5.540;2023-06-10T12:32:34;6.57;;;3.67;;
24261;SDS011;12385;51.412;5.540;2023-06-10T12:35:04;5.13;;;4.00;;
24261;SDS011;12385;51.412;5.540;2023-06-10T12:37:30;6.72;;;4.00;;
24261;SDS011;12385;51.412;5.540;2023-06-10T12:39:59;7.53;;;3.80;;
24261;SDS011;12385;51.412;5.540;2023-06-10T12:42:29;7.18;;;3.97;;
24261;SDS011;12385;51.412;5.540;2023-06-10T12:44:56;11.25;;;3.63;;
24261;SDS011;12385;51.412;5.540;2023-06-10T12:47:30;7.65;;;3.60;;
24261;SDS011;12385;51.412;5.540;2023-06-10T12:49:58;5.68;;;3.55;;
24261;SDS011;12385;51.412;5.540;2023-06-10T12:52:24;5.57;;;3.60;;
24261;SDS011;12385;51.412;5.540;2023-06-10T12:54:52;10.65;;;3.67;;
24261;SDS011;12385;51.412;5.540;2023-06-10T12:57:19;6.83;;;3.47;;
24261;SDS011;12385;51.412;5.540;2023-06-10T12:59:44;6.18;;;3.75;;
24261;SDS011;12385;51.412;5.540;2023-06-10T13:02:19;7.60;;;3.45;;
24261;SDS011;12385;51.412;5.540;2023-06-10T13:04:45;4.88;;;3.70;;
24261;SDS011;12385;51.412;5.540;2023-06-10T13:07:11;5.57;;;3.35;;
24261;SDS011;12385;51.412;5.540;2023-06-10T13:09:37;5.50;;;3.58;;
24261;SDS011;12385;51.412;5.540;2023-06-10T13:12:03;7.63;;;3.70;;
24261;SDS011;12385;51.412;5.540;2023-06-10T13:14:30;6.93;;;3.53;;
24261;SDS011;12385;51.412;5.540;2023-06-10T13:16:56;7.65;;;3.30;;
24261;SDS011;12385;51.412;5.540;2023-06-10T13:19:22;4.38;;;3.50;;
24261;SDS011;12385;51.412;5.540;2023-06-10T13:21:48;6.57;;;3.15;;
24261;SDS011;12385;51.412;5.540;2023-06-10T13:24:14;7.88;;;3.30;;
24261;SDS011;12385;51.412;5.540;2023-06-10T13:26:40;6.03;;;2.95;;
24261;SDS011;12385;51.412;5.540;2023-06-10T13:29:05;5.05;;;2.92;;
24261;SDS011;12385;51.412;5.540;2023-06-10T13:31:33;6.68;;;3.20;;
24261;SDS011;12385;51.412;5.540;2023-06-10T13:33:59;9.48;;;3.20;;
24261;SDS011;12385;51.412;5.540;2023-06-10T13:36:25;6.88;;;3.08;;
24261;SDS011;12385;51.412;5.540;2023-06-10T13:38:51;7.05;;;3.33;;
24261;SDS011;12385;51.412;5.540;2023-06-10T13:41:17;6.38;;;3.20;;
24261;SDS011;12385;51.412;5.540;2023-06-10T13:43:43;5.18;;;3.25;;
24261;SDS011;12385;51.412;5.540;2023-06-10T13:46:08;8.20;;;3.30;;
24261;SDS011;12385;51.412;5.540;2023-06-10T13:48:34;7.03;;;3.25;;
24261;SDS011;12385;51.412;5.540;2023-06-10T13:51:00;4.30;;;3.17;;
24261;SDS011;12385;51.412;5.540;2023-06-10T13:53:26;4.90;;;2.97;;
24261;SDS011;12385;51.412;5.540;2023-06-10T13:55:51;6.45;;;3.20;;
24261;SDS011;12385;51.412;5.540;2023-06-10T13:58:17;7.22;;;3.30;;
24261;SDS011;12385;51.412;5.540;2023-06-10T14:00:42;7.15;;;3.28;;
24261;SDS011;12385;51.412;5.540;2023-06-10T14:03:08;5.60;;;3.10;;
24261;SDS011;12385;51.412;5.540;2023-06-10T14:05:33;7.25;;;3.50;;
24261;SDS011;12385;51.412;5.540;2023-06-10T14:08:00;8.40;;;3.40;;
24261;SDS011;12385;51.412;5.540;2023-06-10T14:10:25;5.03;;;3.53;;
24261;SDS011;12385;51.412;5.540;2023-06-10T14:12:51;10.52;;;3.40;;
24261;SDS011;12385;51.412;5.540;2023-06-10T14:15:17;6.60;;;3.35;;
24261;SDS011;12385;51.412;5.540;2023-06-10T14:17:42;5.88;;;3.53;;
24261;SDS011;12385;51.412;5.540;2023-06-10T14:20:08;4.68;;;3.50;;
24261;SDS011;12385;51.412;5.540;2023-06-10T14:22:34;8.00;;;3.35;;
24261;SDS011;12385;51.412;5.540;2023-06-10T14:25:00;7.10;;;3.55;;
24261;SDS011;12385;51.412;5.540;2023-06-10T14:27:25;8.30;;;3.33;;
24261;SDS011;12385;51.412;5.540;2023-06-10T14:29:51;7.03;;;3.30;;
24261;SDS011;12385;51.412;5.540;2023-06-10T14:32:16;6.35;;;3.50;;
24261;SDS011;12385;51.412;5.540;2023-06-10T14:34:44;6.07;;;3.55;;
24261;SDS011;12385;51.412;5.540;2023-06-10T14:37:11;6.57;;;3.50;;
24261;SDS011;12385;51.412;5.540;2023-06-10T14:39:37;10.38;;;3.40;;
24261;SDS011;12385;51.412;5.540;2023-06-10T14:42:03;8.07;;;3.72;;
24261;SDS011;12385;51.412;5.540;2023-06-10T14:44:29;5.97;;;3.67;;
24261;SDS011;12385;51.412;5.540;2023-06-10T14:46:56;5.90;;;3.35;;
24261;SDS011;12385;51.412;5.540;2023-06-10T14:49:21;5.35;;;3.35;;
24261;SDS011;12385;51.412;5.540;2023-06-10T14:51:47;9.20;;;3.42;;
24261;SDS011;12385;51.412;5.540;2023-06-10T14:54:15;7.40;;;3.55;;
24261;SDS011;12385;51.412;5.540;2023-06-10T14:56:41;5.90;;;3.10;;
24261;SDS011;12385;51.412;5.540;2023-06-10T14:59:07;12.18;;;3.53;;
24261;SDS011;12385;51.412;5.540;2023-06-10T15:01:34;11.82;;;3.65;;
24261;SDS011;12385;51.412;5.540;2023-06-10T15:03:59;6.88;;;3.45;;
24261;SDS011;12385;51.412;5.540;2023-06-10T15:06:25;6.25;;;3.80;;
24261;SDS011;12385;51.412;5.540;2023-06-10T15:08:52;7.03;;;3.42;;
24261;SDS011;12385;51.412;5.540;2023-06-10T15:11:17;6.28;;;3.78;;
24261;SDS011;12385;51.412;5.540;2023-06-10T15:13:43;6.18;;;4.32;;
24261;SDS011;12385;51.412;5.540;2023-06-10T15:16:10;5.78;;;3.88;;
24261;SDS011;12385;51.412;5.540;2023-06-10T15:18:35;4.82;;;3.35;;